Terminal Aerodrome Forecast
Issued by NWS

Home | Current Version | Previous Version | Text Only | Print | Product List | Glossary On
Versions: 1 2 3 4 5 6 7 8 9 10 11 12
356
FTUS46 KMFR 231002 AAA
TAFLMT
TAF AMD
KLMT 231002Z 2310/2406 VRB03KT P6SM SCT050 BKN100
     FM231900 27012G18KT P6SM BKN070
     FM240300 25005KT P6SM BKN060=

USA.gov is the U.S. government's official web portal to all federal, state and local government web resources and services.